Fifield, Wisconsin
Current Conditions -  °F | °C
As of 11:55 AM on Thursday 30 Oct 2014 (Local Time) from KPBH Reporting Station
Overcast Overcast  
Wind Chill: 36°   Ceiling: 1900
Heat Index: 39°   Visibility: 10mi
Dew Point: 32°   Wind: 5mph
Humidity: 75%   Direction: 270°W
Pressure: 30.05"   Gusts: NA
Location:  45.88°N, 90.42°W
Report Text: KPBH 301655Z AUTO 27004KT 10SM OVC019 04/00 A3005 RMK AO2 T00410000
Loading
Personal Weather Stations






























Interactive Weather Map
Tropical Storm Tracking
New forecast layout! Learn more

10-Day Weather Forecast

Advertisements
Track Severe Weather on mobile